createdAt,value
2019-02-19T01:00:21.155Z,67.27
2019-02-19T01:02:52.733Z,66.61
2019-02-19T01:05:24.362Z,66.40
2019-02-19T01:07:55.879Z,66.66
2019-02-19T01:10:27.471Z,66.93
2019-02-19T01:12:58.920Z,67.61
2019-02-19T01:15:30.517Z,67.52
2019-02-19T01:18:01.991Z,67.37
2019-02-19T01:20:33.636Z,68.08
2019-02-19T01:23:05.200Z,68.88
2019-02-19T01:25:36.700Z,69.18
2019-02-19T01:28:08.241Z,68.54
2019-02-19T01:30:39.731Z,69.12
2019-02-19T01:33:11.377Z,68.50
2019-02-19T01:35:42.933Z,68.64
2019-02-19T01:38:16.711Z,67.86
2019-02-19T01:40:49.185Z,67.19
2019-02-19T01:43:20.731Z,66.83
2019-02-19T01:45:52.341Z,66.43
2019-02-19T01:48:25.321Z,66.62
2019-02-19T01:50:56.977Z,66.47
2019-02-19T01:53:28.649Z,66.54
2019-02-19T01:56:00.200Z,66.65
2019-02-19T01:58:31.791Z,66.71
2019-02-19T02:01:03.374Z,66.62
2019-02-19T02:03:35.016Z,66.18
2019-02-19T02:06:06.596Z,66.06
2019-02-19T02:08:38.223Z,66.10
2019-02-19T02:11:09.733Z,66.43
2019-02-19T02:13:41.437Z,67.07
2019-02-19T02:16:15.278Z,66.46
2019-02-19T02:18:46.722Z,67.07
2019-02-19T02:21:19.404Z,68.06
2019-02-19T02:23:50.990Z,68.25
2019-02-19T02:26:22.491Z,67.51
2019-02-19T02:28:56.790Z,67.87
2019-02-19T02:31:28.416Z,67.90
2019-02-19T02:34:00.044Z,68.03
2019-02-19T02:36:31.600Z,68.36
2019-02-19T02:39:03.515Z,68.58
2019-02-19T02:41:35.859Z,68.49
2019-02-19T02:44:07.446Z,68.35
2019-02-19T02:46:39.166Z,68.29
2019-02-19T02:49:10.685Z,67.47
2019-02-19T02:51:42.263Z,67.21
2019-02-19T02:54:15.540Z,66.47
2019-02-19T02:56:47.122Z,65.65
2019-02-19T02:59:18.567Z,65.35
2019-02-19T03:01:50.145Z,65.10
2019-02-19T03:04:21.686Z,66.45
2019-02-19T03:07:05.306Z,65.28
2019-02-19T03:09:36.884Z,64.93
2019-02-19T03:12:09.734Z,64.76
2019-02-19T03:14:42.160Z,64.78
2019-02-19T03:17:13.729Z,65.07
2019-02-19T03:19:45.247Z,64.61
2019-02-19T03:22:20.555Z,65.10
2019-02-19T03:24:52.071Z,65.90
2019-02-19T03:27:23.688Z,65.31
2019-02-19T03:29:55.112Z,66.25
2019-02-19T03:32:26.565Z,65.11
2019-02-19T03:34:58.076Z,65.76
2019-02-19T03:37:29.600Z,66.95
2019-02-19T03:40:01.247Z,66.11
2019-02-19T03:42:33.977Z,66.21
2019-02-19T03:45:06.432Z,66.90
2019-02-19T03:47:38.037Z,67.49
2019-02-19T03:50:09.809Z,67.82
2019-02-19T03:52:41.369Z,68.33
2019-02-19T03:55:12.428Z,67.03
2019-02-19T03:57:44.021Z,67.01
2019-02-19T04:00:31.925Z,67.01
2019-02-19T04:03:03.783Z,66.65
2019-02-19T04:05:35.352Z,67.59
2019-02-19T04:08:06.916Z,67.94
2019-02-19T04:10:38.383Z,68.78
2019-02-19T04:13:09.939Z,68.96
2019-02-19T04:15:41.612Z,68.82
2019-02-19T04:18:13.095Z,68.48
2019-02-19T04:20:44.803Z,67.16
2019-02-19T04:23:16.340Z,66.29
2019-02-19T04:25:47.855Z,67.00
2019-02-19T04:28:19.442Z,66.33
2019-02-19T04:30:50.892Z,67.25
2019-02-19T04:33:22.376Z,67.09
2019-02-19T04:35:53.871Z,67.30
2019-02-19T04:38:25.388Z,66.80
2019-02-19T04:40:56.980Z,66.67
2019-02-19T04:43:28.446Z,66.91
2019-02-19T04:45:59.950Z,66.82
2019-02-19T04:48:31.417Z,66.65
2019-02-19T04:51:02.953Z,66.68
2019-02-19T04:53:34.427Z,66.67
2019-02-19T04:56:06.025Z,66.35
2019-02-19T04:58:39.817Z,66.44
2019-02-19T05:01:11.574Z,66.17
2019-02-19T05:03:43.553Z,66.12
2019-02-19T05:06:15.277Z,66.48
2019-02-19T05:08:46.876Z,66.48
2019-02-19T05:11:18.443Z,66.85
2019-02-19T05:13:50.019Z,66.79
2019-02-19T05:16:21.554Z,66.60
2019-02-19T05:18:53.215Z,66.42
2019-02-19T05:21:24.789Z,66.39
2019-02-19T05:23:56.343Z,66.38
2019-02-19T05:26:29.250Z,66.35
2019-02-19T05:29:00.803Z,66.20
2019-02-19T05:31:32.336Z,66.15
2019-02-19T05:34:04.032Z,66.32
2019-02-19T05:36:35.548Z,66.10
2019-02-19T05:39:07.241Z,65.71
2019-02-19T05:41:38.769Z,65.70
2019-02-19T05:44:11.578Z,65.52
2019-02-19T05:46:49.589Z,65.81
2019-02-19T05:49:16.285Z,65.67
2019-02-19T05:51:48.879Z,65.49
2019-02-19T05:54:20.414Z,65.26
2019-02-19T05:56:51.905Z,65.36
2019-02-19T05:59:23.434Z,65.33
2019-02-19T06:01:54.938Z,65.74
2019-02-19T06:04:26.411Z,65.50
2019-02-19T06:06:57.906Z,65.81
2019-02-19T06:09:29.305Z,65.79
2019-02-19T06:12:00.777Z,66.03
2019-02-19T06:14:32.328Z,67.03
2019-02-19T06:17:03.832Z,67.10
2019-02-19T06:19:35.293Z,67.05
2019-02-19T06:22:06.901Z,66.49
2019-02-19T06:24:38.542Z,66.42
2019-02-19T06:27:10.239Z,66.64
2019-02-19T06:29:41.682Z,66.72
2019-02-19T06:32:13.250Z,66.61
2019-02-19T06:34:44.777Z,66.73
2019-02-19T06:37:16.264Z,66.67
2019-02-19T06:39:47.791Z,66.47
2019-02-19T06:42:19.341Z,66.36
2019-02-19T06:44:50.790Z,66.18
2019-02-19T06:47:22.267Z,65.92
2019-02-19T06:49:53.723Z,65.58
2019-02-19T06:52:25.202Z,65.25
2019-02-19T06:54:56.677Z,65.05
2019-02-19T06:57:28.071Z,64.78
2019-02-19T06:59:59.514Z,64.43
2019-02-19T07:02:45.885Z,64.34
2019-02-19T07:05:22.594Z,63.91
2019-02-19T07:07:56.546Z,63.75
2019-02-19T07:10:40.793Z,63.58
2019-02-19T07:13:17.189Z,63.44
2019-02-19T07:15:48.568Z,63.35
2019-02-19T07:18:21.182Z,63.28
2019-02-19T07:20:52.676Z,63.27
2019-02-19T07:23:24.074Z,63.26
2019-02-19T07:25:55.579Z,63.42
2019-02-19T07:28:27.354Z,63.44
2019-02-19T07:30:58.845Z,63.51
2019-02-19T07:33:30.227Z,63.81
2019-02-19T07:36:01.996Z,63.49
2019-02-19T07:38:34.199Z,64.07
2019-02-19T07:41:05.592Z,64.10
2019-02-19T07:43:36.968Z,63.76
2019-02-19T07:46:08.427Z,63.84
2019-02-19T07:48:39.868Z,63.22
2019-02-19T07:51:11.223Z,62.62
2019-02-19T07:53:42.783Z,62.63
2019-02-19T07:56:14.168Z,62.12
2019-02-19T07:58:45.575Z,62.58
2019-02-19T08:01:17.004Z,62.17
2019-02-19T08:03:48.555Z,61.88
2019-02-19T08:06:22.122Z,61.16
2019-02-19T08:08:55.367Z,60.57
2019-02-19T08:11:28.198Z,60.29
2019-02-19T08:13:59.641Z,60.58
2019-02-19T08:16:31.040Z,59.47
2019-02-19T08:19:02.564Z,58.97
2019-02-19T08:21:33.939Z,59.30
2019-02-19T08:24:05.383Z,58.54
2019-02-19T08:26:36.813Z,58.51
2019-02-19T08:29:13.784Z,58.51
2019-02-19T08:31:42.366Z,58.08
2019-02-19T08:34:13.762Z,57.40
2019-02-19T08:36:45.189Z,56.64
2019-02-19T08:39:16.673Z,55.69
2019-02-19T08:41:48.126Z,54.53
2019-02-19T08:44:19.537Z,54.04
2019-02-19T08:46:50.937Z,52.89
2019-02-19T08:49:22.460Z,51.98
2019-02-19T08:51:56.097Z,49.58
2019-02-19T08:54:27.410Z,48.10
2019-02-19T08:57:00.324Z,46.14
2019-02-19T08:59:31.847Z,44.05
2019-02-19T09:02:03.266Z,43.13
2019-02-19T09:04:34.800Z,42.53
2019-02-19T09:07:06.258Z,42.11
2019-02-19T09:09:37.783Z,41.81
2019-02-19T09:12:09.198Z,41.07
2019-02-19T09:14:40.600Z,41.09
2019-02-19T09:17:12.006Z,40.28
2019-02-19T09:19:43.429Z,39.98
2019-02-19T09:22:16.947Z,39.57
2019-02-19T09:24:48.370Z,39.72
2019-02-19T09:27:19.783Z,39.44
2019-02-19T09:29:51.236Z,38.87
2019-02-19T09:32:22.734Z,39.04
2019-02-19T09:34:55.209Z,38.91
2019-02-19T09:37:26.611Z,38.48
2019-02-19T09:39:58.104Z,38.19
2019-02-19T09:42:29.492Z,37.60
2019-02-19T09:45:00.943Z,38.10
2019-02-19T09:47:33.608Z,37.39
2019-02-19T09:50:05.515Z,38.07
2019-02-19T09:52:36.978Z,38.05
2019-02-19T09:55:08.737Z,37.88
2019-02-19T09:57:40.127Z,38.61
2019-02-19T10:00:12.391Z,38.22
2019-02-19T10:02:44.108Z,39.05
2019-02-19T10:05:15.739Z,39.57
2019-02-19T10:07:47.303Z,39.20
2019-02-19T10:10:18.990Z,39.68
2019-02-19T10:12:50.540Z,40.26
2019-02-19T10:15:22.047Z,38.88
2019-02-19T10:17:53.590Z,39.00
2019-02-19T10:20:26.714Z,37.99
2019-02-19T10:22:58.208Z,37.79
2019-02-19T10:25:30.840Z,37.66
2019-02-19T10:28:02.273Z,37.88
2019-02-19T10:30:34.748Z,36.95
2019-02-19T10:33:06.292Z,36.70
2019-02-19T10:35:37.748Z,36.86
2019-02-19T10:38:09.321Z,36.36
2019-02-19T10:40:40.747Z,37.31
2019-02-19T10:43:12.183Z,37.67
2019-02-19T10:45:43.747Z,37.69
2019-02-19T10:48:19.061Z,37.80
2019-02-19T10:50:48.404Z,38.53
2019-02-19T10:53:19.917Z,38.46
2019-02-19T10:55:51.443Z,38.75
2019-02-19T10:58:23.383Z,39.02
2019-02-19T11:00:55.164Z,38.88
2019-02-19T11:03:26.639Z,38.89
2019-02-19T11:05:58.154Z,39.17
2019-02-19T11:08:29.571Z,38.20
2019-02-19T11:11:02.270Z,37.93
2019-02-19T11:13:33.787Z,37.34
2019-02-19T11:16:06.484Z,38.36
2019-02-19T11:18:39.443Z,37.88
2019-02-19T11:21:19.031Z,38.28
2019-02-19T11:23:44.045Z,39.17
2019-02-19T11:26:15.483Z,37.44
2019-02-19T11:28:46.898Z,37.92
2019-02-19T11:31:18.465Z,37.69
2019-02-19T11:33:50.041Z,38.26
2019-02-19T11:36:21.475Z,38.13
2019-02-19T11:38:52.970Z,38.86
2019-02-19T11:41:25.451Z,38.01
2019-02-19T11:43:56.928Z,37.92
2019-02-19T11:46:28.475Z,38.26
2019-02-19T11:49:00.354Z,38.83
2019-02-19T11:51:31.823Z,39.26
2019-02-19T11:54:03.218Z,39.15
2019-02-19T11:56:34.731Z,39.60
2019-02-19T11:59:08.758Z,39.81
2019-02-19T12:01:41.009Z,40.58
2019-02-19T12:04:12.481Z,40.41
2019-02-19T12:06:43.930Z,40.87
2019-02-19T12:09:15.370Z,40.73
2019-02-19T12:11:46.848Z,41.53
2019-02-19T12:14:18.307Z,41.53
2019-02-19T12:16:49.704Z,41.65
2019-02-19T12:19:22.326Z,42.69
2019-02-19T12:21:54.749Z,42.70
2019-02-19T12:24:26.184Z,42.66
2019-02-19T12:26:57.808Z,43.27
2019-02-19T12:29:29.814Z,44.45
2019-02-19T12:32:01.329Z,44.98
2019-02-19T12:34:32.885Z,44.06
2019-02-19T12:37:04.298Z,44.29
2019-02-19T12:39:35.731Z,43.52
2019-02-19T12:42:07.264Z,43.58
2019-02-19T12:44:40.374Z,43.17
2019-02-19T12:47:14.122Z,43.93
2019-02-19T12:49:45.505Z,44.67
2019-02-19T12:52:17.039Z,45.85
2019-02-19T12:54:48.898Z,45.41
2019-02-19T12:57:20.252Z,46.23
2019-02-19T12:59:56.537Z,46.50
2019-02-19T13:02:24.913Z,46.44
2019-02-19T13:04:56.378Z,46.25
2019-02-19T13:07:27.826Z,46.19
2019-02-19T13:09:59.346Z,46.10
2019-02-19T13:12:30.859Z,46.78
2019-02-19T13:15:02.389Z,47.33
2019-02-19T13:17:35.011Z,47.54
2019-02-19T13:20:07.099Z,47.92
2019-02-19T13:22:38.856Z,47.59
2019-02-19T13:25:10.767Z,47.98
2019-02-19T13:27:43.871Z,48.69
2019-02-19T13:30:16.120Z,49.10
2019-02-19T13:32:47.581Z,49.66
2019-02-19T13:35:19.062Z,50.23
2019-02-19T13:37:51.553Z,49.96
2019-02-19T13:40:23.137Z,50.80
2019-02-19T13:42:54.533Z,50.97
2019-02-19T13:45:27.534Z,51.45
2019-02-19T13:48:05.668Z,52.01
2019-02-19T13:50:32.076Z,52.46
2019-02-19T13:53:26.574Z,53.57
2019-02-19T13:55:59.017Z,53.00
2019-02-19T13:58:30.428Z,52.65
2019-02-19T14:01:01.914Z,53.07
2019-02-19T14:03:33.457Z,53.23
2019-02-19T14:06:04.892Z,53.01
2019-02-19T14:08:36.307Z,53.46
2019-02-19T14:11:07.782Z,54.31
2019-02-19T14:13:42.112Z,54.99
2019-02-19T14:16:20.522Z,55.73
2019-02-19T14:19:00.907Z,56.14
2019-02-19T14:22:09.695Z,56.48
2019-02-19T14:25:06.055Z,56.84
2019-02-19T14:27:55.613Z,57.17
2019-02-19T14:30:39.467Z,57.23
2019-02-19T14:33:27.423Z,57.45
2019-02-19T14:36:17.745Z,57.47
2019-02-19T14:39:06.883Z,57.60
2019-02-19T14:42:02.405Z,57.63
2019-02-19T14:44:52.750Z,57.48
2019-02-19T14:47:42.423Z,57.19
2019-02-19T14:50:47.961Z,57.26
2019-02-19T14:53:41.073Z,57.17
2019-02-19T14:56:30.313Z,56.98
2019-02-19T14:59:29.981Z,56.77
2019-02-19T15:02:19.231Z,56.78
2019-02-19T15:05:08.676Z,57.13
2019-02-19T15:07:45.834Z,57.29
2019-02-19T15:10:48.577Z,57.49
2019-02-19T15:13:42.070Z,58.01
2019-02-19T15:16:36.611Z,58.06
2019-02-19T15:19:39.313Z,57.91
2019-02-19T15:22:28.313Z,57.91
2019-02-19T15:25:12.357Z,58.28
2019-02-19T15:27:56.148Z,58.38
2019-02-19T15:30:37.686Z,58.65
2019-02-19T15:33:19.628Z,58.93
2019-02-19T15:36:13.172Z,59.05
2019-02-19T15:39:04.254Z,58.98
2019-02-19T15:42:00.035Z,58.93
2019-02-19T15:44:56.441Z,58.91
2019-02-19T15:47:39.861Z,59.32
2019-02-19T15:50:31.617Z,59.47
2019-02-19T15:53:21.949Z,59.25
2019-02-19T15:56:21.888Z,59.66
2019-02-19T15:59:02.725Z,59.98
2019-02-19T16:01:50.301Z,59.88
2019-02-19T16:04:36.759Z,60.12
2019-02-19T16:07:27.276Z,60.09
2019-02-19T16:10:20.076Z,59.98
2019-02-19T16:13:09.328Z,59.96
2019-02-19T16:15:55.601Z,59.85
2019-02-19T16:18:43.866Z,59.84
2019-02-19T16:21:41.929Z,59.91
2019-02-19T16:24:35.082Z,60.18
2019-02-19T16:27:15.177Z,60.16
2019-02-19T16:30:15.450Z,60.24
2019-02-19T16:33:17.015Z,60.39
2019-02-19T16:36:22.738Z,60.56
2019-02-19T16:39:18.443Z,60.62
2019-02-19T16:42:19.099Z,60.83
2019-02-19T16:45:13.434Z,61.25
2019-02-19T16:48:29.595Z,61.51
2019-02-19T16:51:19.640Z,61.67
2019-02-19T16:57:32.769Z,61.83
2019-02-19T17:00:13.236Z,61.85
2019-02-19T17:03:13.794Z,62.03
2019-02-19T17:05:58.516Z,62.12
2019-02-19T17:08:51.067Z,62.17
2019-02-19T17:11:32.607Z,62.06
2019-02-19T17:14:21.718Z,62.04
2019-02-19T17:17:10.983Z,61.93
2019-02-19T17:20:21.022Z,62.09
2019-02-19T17:23:05.004Z,62.31
2019-02-19T17:26:04.524Z,62.48
2019-02-19T17:29:04.237Z,62.68
2019-02-19T17:31:43.705Z,62.85
2019-02-19T17:34:30.738Z,63.08
2019-02-19T17:37:33.321Z,63.10
2019-02-19T17:40:27.078Z,63.23
2019-02-19T17:43:09.545Z,63.24
2019-02-19T17:46:03.466Z,63.33
2019-02-19T17:49:09.140Z,63.42
2019-02-19T17:52:14.845Z,63.41
2019-02-19T17:55:08.481Z,63.38
2019-02-19T17:57:57.080Z,63.32
2019-02-19T18:00:38.965Z,63.13
2019-02-19T18:03:36.381Z,63.04
2019-02-19T18:06:19.693Z,63.02
2019-02-19T18:09:11.283Z,62.97
2019-02-19T18:11:50.726Z,63.14
2019-02-19T18:15:01.952Z,63.10
2019-02-19T18:18:19.903Z,63.05
2019-02-19T18:20:52.005Z,63.06
2019-02-19T18:23:23.556Z,63.12
2019-02-19T18:25:55.196Z,62.96
2019-02-19T18:28:26.814Z,63.00
2019-02-19T18:30:58.452Z,62.77
2019-02-19T18:33:30.196Z,62.37
2019-02-19T18:36:01.587Z,62.21
2019-02-19T18:38:34.374Z,61.93
2019-02-19T18:41:06.283Z,61.86
2019-02-19T18:43:38.199Z,61.83
2019-02-19T18:46:12.701Z,61.99
2019-02-19T18:48:44.595Z,62.29
2019-02-19T18:51:16.145Z,62.34
2019-02-19T18:53:48.717Z,62.13
2019-02-19T18:56:20.461Z,62.15
2019-02-19T18:58:52.290Z,62.01
2019-02-19T19:01:24.092Z,62.18
2019-02-19T19:03:55.980Z,62.23
2019-02-19T19:06:28.144Z,62.31
2019-02-19T19:09:03.832Z,62.37
2019-02-19T19:15:09.683Z,62.03
2019-02-19T19:17:42.482Z,62.04
2019-02-19T19:20:15.176Z,62.06
2019-02-19T19:22:47.240Z,61.92
2019-02-19T19:25:19.314Z,61.88
2019-02-19T19:27:55.513Z,61.85
2019-02-19T19:30:28.357Z,61.79
2019-02-19T19:33:05.780Z,61.75
2019-02-19T19:35:39.134Z,61.67
2019-02-19T19:38:10.760Z,61.69
2019-02-19T19:40:43.166Z,61.55
2019-02-19T19:43:20.672Z,61.59
2019-02-19T19:45:52.071Z,61.56
2019-02-19T19:48:27.796Z,61.60
2019-02-19T19:51:03.470Z,61.70
2019-02-19T19:53:35.110Z,61.61
2019-02-19T19:56:12.627Z,61.82
2019-02-19T19:58:44.578Z,61.94
2019-02-19T20:01:16.274Z,62.13
2019-02-19T20:03:56.501Z,62.05
2019-02-19T20:06:28.197Z,61.95
2019-02-19T20:08:59.713Z,61.65
2019-02-19T20:11:31.379Z,61.48
2019-02-19T20:14:05.518Z,61.57
2019-02-19T20:16:38.465Z,61.61
2019-02-19T20:19:19.681Z,61.79
2019-02-19T20:21:52.919Z,62.15
2019-02-19T20:24:24.492Z,62.53
2019-02-19T20:26:56.219Z,62.97
2019-02-19T20:29:27.841Z,63.26
2019-02-19T20:32:00.977Z,63.42
2019-02-19T20:34:32.534Z,63.73
2019-02-19T20:37:07.167Z,64.02
2019-02-19T20:39:44.391Z,64.27
2019-02-19T20:42:16.067Z,64.35
2019-02-19T20:44:47.851Z,64.45
2019-02-19T20:47:19.979Z,64.58
2019-02-19T20:50:16.948Z,64.56
2019-02-19T20:52:50.219Z,64.50
2019-02-19T20:55:23.172Z,64.49
2019-02-19T20:58:00.443Z,64.63
2019-02-19T21:00:57.981Z,64.82
2019-02-19T21:03:31.748Z,64.94
2019-02-19T21:06:05.811Z,64.67
2019-02-19T21:08:55.784Z,64.66
2019-02-19T21:11:33.747Z,64.54
2019-02-19T21:14:05.429Z,64.43
2019-02-19T21:16:37.712Z,64.11
2019-02-19T21:19:12.026Z,63.74
2019-02-19T21:21:45.149Z,63.77
2019-02-19T21:24:18.253Z,63.85
2019-02-19T21:26:59.697Z,63.92
2019-02-19T21:29:47.049Z,63.97
2019-02-19T21:32:28.462Z,63.86
2019-02-19T21:35:10.942Z,63.92
2019-02-19T21:38:36.413Z,63.91
2019-02-19T21:41:27.509Z,64.00
2019-02-19T21:44:23.461Z,64.06
2019-02-19T21:47:01.139Z,64.16
2019-02-19T21:54:24.154Z,64.19
2019-02-19T22:00:54.900Z,64.02
2019-02-19T22:03:35.534Z,64.02
2019-02-19T22:06:44.551Z,63.87
2019-02-19T22:09:39.325Z,63.68
2019-02-19T22:12:23.513Z,63.61
2019-02-19T22:15:03.669Z,63.46
2019-02-19T22:17:41.420Z,63.57
2019-02-19T22:21:19.838Z,63.60
2019-02-19T22:24:02.254Z,63.75
2019-02-19T22:26:42.218Z,63.82
2019-02-19T22:29:35.250Z,63.73
2019-02-19T22:32:18.893Z,63.56
2019-02-19T22:35:02.304Z,63.25
2019-02-19T22:37:43.694Z,63.51
2019-02-19T22:40:14.994Z,64.00
2019-02-19T22:42:48.157Z,64.32
2019-02-19T22:45:19.606Z,65.23
2019-02-19T22:47:53.386Z,65.45
2019-02-19T22:50:24.401Z,65.61
2019-02-19T22:52:55.974Z,65.99
2019-02-19T22:55:52.392Z,66.27
2019-02-19T22:58:23.924Z,66.69
2019-02-19T23:01:12.459Z,67.51
2019-02-19T23:03:44.636Z,68.01
2019-02-19T23:06:16.121Z,68.89
2019-02-19T23:08:47.526Z,69.43
2019-02-19T23:11:19.333Z,69.65
2019-02-19T23:13:52.308Z,69.78
2019-02-19T23:16:23.782Z,70.03
2019-02-19T23:18:55.230Z,70.64
2019-02-19T23:21:26.721Z,70.67
2019-02-19T23:23:58.250Z,70.85
2019-02-19T23:26:29.747Z,71.02
2019-02-19T23:29:01.270Z,71.21
2019-02-19T23:31:33.923Z,71.19
2019-02-19T23:34:05.447Z,71.22
2019-02-19T23:36:58.215Z,71.27
2019-02-19T23:39:29.756Z,71.43
2019-02-19T23:42:01.242Z,71.35
2019-02-19T23:44:32.744Z,71.50
2019-02-19T23:47:05.122Z,71.43
2019-02-19T23:49:38.090Z,71.37
2019-02-19T23:52:09.598Z,71.22
2019-02-19T23:54:41.135Z,71.14
2019-02-19T23:57:12.852Z,71.07
2019-02-19T23:59:44.380Z,70.84
